Hawkinsville, New York
Current Conditions -  °F | °C
As of 11:53 PM on Tuesday 25 Nov 2014 (Local Time) from KRME Reporting Station
Overcast Overcast  
Wind Chill: 30°   Ceiling: 4200
Heat Index: 37°   Visibility: 10mi
Dew Point: 28°   Wind: 9mph
Humidity: 70%   Direction: 260°W
Pressure: 30.22"   Gusts: NA
Location:  43.4691°N, 75.3509°W
Report Text: KRME 260453Z AUTO 26008KT 10SM OVC042 03/M02 A3022 RMK AO2 SLP234 T00281022 400890000
Loading
Personal Weather Stations






























Interactive Weather Map New forecast layout! Learn more

10-Day Weather Forecast

Advertisements
Track Severe Weather on mobile